Portada
METAR-TAF:

METAR-TAF

Aeropuertos :

Aeropuerto de Tetuán-Sania Ramel

Tetuán, Marruecos

latitud: 35-35N, longitud: 005-20W, altitud: 10 m

Observación

El informe se hizo hace 1 hora y 9 minutos, a las 01:00 UTC
Viento 2 kt con dirección variable
Temperatura 11°C
Humedad 94%
Presión 1018 hPa

METAR: GMTN 240100Z AUTO VRB02KT 11/10 Q1018

Hora: 03:09 (02:09 UTC)


TAF: falta

Observaciones y pronósticos meteorológicos de más de 4000 aeropuertos (mensajes METAR y TAF).

Los puntos amarillos y rojos representan las estaciones disponibles.

Ponga el ratón en el punto deseado para ver el nombre de la estación.

Haga clic para ver las observaciones y los pronósticos meteorológicos.

Para cambiar el mapa : haga clic en los botones verdes con una cruz de color negro para hacer un zoom, en el botón verde con un guión para alejar o en las flechas verdes para mapas adyacentes.


METAR-TAF: